sensor_id;sensor_type;location;lat;lon;timestamp;pressure;altitude;pressure_sealevel;temperature;humidity
70248;BME280;57641;51.416;5.506;2023-05-25T00:02:00;102614.47;;;16.50;52.71
70248;BME280;57641;51.416;5.506;2023-05-25T00:04:34;102618.59;;;16.44;52.78
70248;BME280;57641;51.416;5.506;2023-05-25T00:07:09;102616.88;;;16.53;52.66
70248;BME280;57641;51.416;5.506;2023-05-25T00:09:41;102612.22;;;16.45;53.10
70248;BME280;57641;51.416;5.506;2023-05-25T00:12:16;102615.69;;;16.38;53.18
70248;BME280;57641;51.416;5.506;2023-05-25T00:14:47;102615.91;;;16.44;53.20
70248;BME280;57641;51.416;5.506;2023-05-25T00:17:20;102612.81;;;16.39;53.21
70248;BME280;57641;51.416;5.506;2023-05-25T00:19:50;102617.72;;;16.54;52.96
70248;BME280;57641;51.416;5.506;2023-05-25T00:22:34;102621.00;;;16.47;53.25
70248;BME280;57641;51.416;5.506;2023-05-25T00:25:14;102618.19;;;16.49;52.91
70248;BME280;57641;51.416;5.506;2023-05-25T00:27:46;102623.31;;;16.42;53.32
70248;BME280;57641;51.416;5.506;2023-05-25T00:30:24;102623.56;;;16.39;53.11
70248;BME280;57641;51.416;5.506;2023-05-25T00:32:50;102626.72;;;16.35;53.23
70248;BME280;57641;51.416;5.506;2023-05-25T00:35:18;102618.69;;;16.25;53.58
70248;BME280;57641;51.416;5.506;2023-05-25T00:37:43;102623.78;;;16.28;53.53
70248;BME280;57641;51.416;5.506;2023-05-25T00:40:25;102617.13;;;16.32;53.11
70248;BME280;57641;51.416;5.506;2023-05-25T00:42:52;102619.41;;;16.27;53.42
70248;BME280;57641;51.416;5.506;2023-05-25T00:45:18;102621.69;;;16.22;53.66
70248;BME280;57641;51.416;5.506;2023-05-25T00:47:44;102621.66;;;16.32;53.64
70248;BME280;57641;51.416;5.506;2023-05-25T00:50:14;102623.34;;;16.23;53.58
70248;BME280;57641;51.416;5.506;2023-05-25T00:52:42;102629.59;;;16.24;53.65
70248;BME280;57641;51.416;5.506;2023-05-25T00:55:08;102627.22;;;16.21;53.61
70248;BME280;57641;51.416;5.506;2023-05-25T00:57:56;102626.94;;;16.14;53.73
70248;BME280;57641;51.416;5.506;2023-05-25T01:00:27;102628.94;;;16.12;53.64
70248;BME280;57641;51.416;5.506;2023-05-25T01:02:59;102625.09;;;16.15;53.58
70248;BME280;57641;51.416;5.506;2023-05-25T01:05:31;102627.91;;;16.23;53.14
70248;BME280;57641;51.416;5.506;2023-05-25T01:08:00;102635.72;;;16.16;53.08
70248;BME280;57641;51.416;5.506;2023-05-25T01:10:32;102629.66;;;16.04;53.47
70248;BME280;57641;51.416;5.506;2023-05-25T01:13:00;102625.69;;;16.09;53.39
70248;BME280;57641;51.416;5.506;2023-05-25T01:15:27;102639.72;;;16.02;53.40
70248;BME280;57641;51.416;5.506;2023-05-25T01:17:54;102633.91;;;16.07;53.61
70248;BME280;57641;51.416;5.506;2023-05-25T01:20:25;102635.59;;;16.08;53.61
70248;BME280;57641;51.416;5.506;2023-05-25T01:26:17;102634.53;;;15.91;53.62
70248;BME280;57641;51.416;5.506;2023-05-25T01:28:50;102643.56;;;15.90;53.49
70248;BME280;57641;51.416;5.506;2023-05-25T01:31:21;102640.16;;;15.88;53.81
70248;BME280;57641;51.416;5.506;2023-05-25T01:33:50;102645.13;;;15.93;53.60
70248;BME280;57641;51.416;5.506;2023-05-25T01:36:18;102642.56;;;15.82;54.19
70248;BME280;57641;51.416;5.506;2023-05-25T01:38:44;102647.81;;;15.83;53.89
70248;BME280;57641;51.416;5.506;2023-05-25T01:41:09;102643.13;;;15.95;53.80
70248;BME280;57641;51.416;5.506;2023-05-25T01:43:35;102648.09;;;15.90;53.68
70248;BME280;57641;51.416;5.506;2023-05-25T01:49:08;102664.41;;;15.69;54.08
70248;BME280;57641;51.416;5.506;2023-05-25T01:54:33;102661.00;;;15.67;54.28
70248;BME280;57641;51.416;5.506;2023-05-25T01:57:00;102666.69;;;15.64;54.43
70248;BME280;57641;51.416;5.506;2023-05-25T01:59:30;102666.53;;;15.75;54.17
70248;BME280;57641;51.416;5.506;2023-05-25T02:01:56;102666.66;;;15.74;53.92
70248;BME280;57641;51.416;5.506;2023-05-25T02:04:23;102666.38;;;15.67;54.21
70248;BME280;57641;51.416;5.506;2023-05-25T02:06:50;102667.94;;;15.60;54.36
70248;BME280;57641;51.416;5.506;2023-05-25T02:09:16;102662.84;;;15.67;53.98
70248;BME280;57641;51.416;5.506;2023-05-25T02:11:42;102665.97;;;15.62;53.91
70248;BME280;57641;51.416;5.506;2023-05-25T02:14:07;102665.81;;;15.63;54.14
70248;BME280;57641;51.416;5.506;2023-05-25T02:16:33;102664.81;;;15.55;54.34
70248;BME280;57641;51.416;5.506;2023-05-25T02:18:59;102660.28;;;15.65;54.08
70248;BME280;57641;51.416;5.506;2023-05-25T02:21:25;102671.03;;;15.65;53.97
70248;BME280;57641;51.416;5.506;2023-05-25T02:23:51;102662.53;;;15.50;54.04
70248;BME280;57641;51.416;5.506;2023-05-25T02:26:18;102656.91;;;15.63;53.94
70248;BME280;57641;51.416;5.506;2023-05-25T02:28:44;102656.28;;;15.50;54.03
70248;BME280;57641;51.416;5.506;2023-05-25T02:31:10;102660.13;;;15.47;53.91
70248;BME280;57641;51.416;5.506;2023-05-25T02:33:35;102656.72;;;15.45;54.18
70248;BME280;57641;51.416;5.506;2023-05-25T02:36:01;102650.66;;;15.43;54.22
70248;BME280;57641;51.416;5.506;2023-05-25T02:38:26;102657.28;;;15.39;54.49
70248;BME280;57641;51.416;5.506;2023-05-25T02:40:52;102645.00;;;15.37;54.26
70248;BME280;57641;51.416;5.506;2023-05-25T02:43:17;102651.22;;;15.28;54.52
70248;BME280;57641;51.416;5.506;2023-05-25T02:45:44;102655.44;;;15.30;54.30
70248;BME280;57641;51.416;5.506;2023-05-25T02:48:09;102648.97;;;15.33;54.31
70248;BME280;57641;51.416;5.506;2023-05-25T02:50:35;102655.00;;;15.25;54.38
70248;BME280;57641;51.416;5.506;2023-05-25T02:53:01;102653.59;;;15.31;54.30
70248;BME280;57641;51.416;5.506;2023-05-25T02:55:26;102661.25;;;15.26;54.61
70248;BME280;57641;51.416;5.506;2023-05-25T02:57:54;102660.38;;;15.25;54.66
70248;BME280;57641;51.416;5.506;2023-05-25T03:00:21;102661.09;;;15.27;54.72
70248;BME280;57641;51.416;5.506;2023-05-25T03:02:46;102660.25;;;15.27;55.00
70248;BME280;57641;51.416;5.506;2023-05-25T03:05:14;102666.63;;;15.26;54.69
70248;BME280;57641;51.416;5.506;2023-05-25T03:07:40;102668.31;;;15.27;54.83
70248;BME280;57641;51.416;5.506;2023-05-25T03:10:08;102670.84;;;15.18;54.60
70248;BME280;57641;51.416;5.506;2023-05-25T03:12:34;102668.16;;;15.18;54.44
70248;BME280;57641;51.416;5.506;2023-05-25T03:14:59;102662.53;;;15.21;54.55
70248;BME280;57641;51.416;5.506;2023-05-25T03:17:25;102668.16;;;15.18;54.43
70248;BME280;57641;51.416;5.506;2023-05-25T03:19:50;102674.22;;;15.11;54.55
70248;BME280;57641;51.416;5.506;2023-05-25T03:22:16;102673.63;;;14.98;54.86
70248;BME280;57641;51.416;5.506;2023-05-25T03:24:41;102681.44;;;15.01;54.93
70248;BME280;57641;51.416;5.506;2023-05-25T03:27:08;102682.84;;;15.05;54.88
70248;BME280;57641;51.416;5.506;2023-05-25T03:29:34;102682.84;;;15.05;54.68
70248;BME280;57641;51.416;5.506;2023-05-25T03:31:59;102686.22;;;15.07;54.84
70248;BME280;57641;51.416;5.506;2023-05-25T03:34:25;102688.22;;;15.05;54.54
70248;BME280;57641;51.416;5.506;2023-05-25T03:36:51;102692.16;;;15.01;54.92
70248;BME280;57641;51.416;5.506;2023-05-25T03:39:18;102702.31;;;14.97;54.80
70248;BME280;57641;51.416;5.506;2023-05-25T03:41:46;102697.97;;;14.96;55.02
70248;BME280;57641;51.416;5.506;2023-05-25T03:44:12;102690.72;;;14.97;54.63
70248;BME280;57641;51.416;5.506;2023-05-25T03:46:38;102698.78;;;14.97;54.51
70248;BME280;57641;51.416;5.506;2023-05-25T03:49:04;102693.25;;;14.89;55.07
70248;BME280;57641;51.416;5.506;2023-05-25T03:51:30;102694.81;;;14.91;54.97
70248;BME280;57641;51.416;5.506;2023-05-25T03:53:55;102701.03;;;14.92;54.84
70248;BME280;57641;51.416;5.506;2023-05-25T03:56:21;102701.72;;;14.84;55.13
70248;BME280;57641;51.416;5.506;2023-05-25T03:58:53;102695.38;;;14.85;55.01
70248;BME280;57641;51.416;5.506;2023-05-25T04:01:19;102709.06;;;14.82;55.01
70248;BME280;57641;51.416;5.506;2023-05-25T04:03:44;102709.59;;;14.76;55.32
70248;BME280;57641;51.416;5.506;2023-05-25T04:06:10;102716.78;;;14.75;55.03
70248;BME280;57641;51.416;5.506;2023-05-25T04:08:35;102715.81;;;14.76;55.45
70248;BME280;57641;51.416;5.506;2023-05-25T04:11:01;102728.13;;;14.79;55.00
70248;BME280;57641;51.416;5.506;2023-05-25T04:13:26;102719.75;;;14.72;55.60
70248;BME280;57641;51.416;5.506;2023-05-25T04:15:53;102722.13;;;14.66;55.90
70248;BME280;57641;51.416;5.506;2023-05-25T04:18:19;102726.97;;;14.72;55.85
70248;BME280;57641;51.416;5.506;2023-05-25T04:20:46;102717.47;;;14.68;55.94
70248;BME280;57641;51.416;5.506;2023-05-25T04:23:11;102719.88;;;14.71;55.81
70248;BME280;57641;51.416;5.506;2023-05-25T04:25:37;102717.19;;;14.71;55.77
70248;BME280;57641;51.416;5.506;2023-05-25T04:28:02;102721.19;;;14.76;55.84
70248;BME280;57641;51.416;5.506;2023-05-25T04:30:27;102720.66;;;14.83;56.01
70248;BME280;57641;51.416;5.506;2023-05-25T04:32:53;102724.47;;;14.80;55.75
70248;BME280;57641;51.416;5.506;2023-05-25T04:35:21;102727.88;;;14.92;55.74
70248;BME280;57641;51.416;5.506;2023-05-25T04:37:47;102722.13;;;14.96;55.65
70248;BME280;57641;51.416;5.506;2023-05-25T04:40:13;102726.50;;;14.97;56.04
70248;BME280;57641;51.416;5.506;2023-05-25T04:42:39;102720.69;;;15.02;55.92
70248;BME280;57641;51.416;5.506;2023-05-25T04:45:06;102720.13;;;14.98;55.83
70248;BME280;57641;51.416;5.506;2023-05-25T04:47:37;102721.97;;;14.98;55.68
70248;BME280;57641;51.416;5.506;2023-05-25T04:50:07;102724.66;;;14.98;55.87
70248;BME280;57641;51.416;5.506;2023-05-25T04:52:33;102727.53;;;15.06;55.81
70248;BME280;57641;51.416;5.506;2023-05-25T04:54:59;102727.41;;;14.77;56.53
70248;BME280;57641;51.416;5.506;2023-05-25T04:57:25;102732.03;;;15.05;56.27
70248;BME280;57641;51.416;5.506;2023-05-25T04:59:56;102736.44;;;15.06;56.26
70248;BME280;57641;51.416;5.506;2023-05-25T05:02:21;102747.91;;;15.18;55.78
70248;BME280;57641;51.416;5.506;2023-05-25T05:04:47;102745.38;;;15.16;55.84
70248;BME280;57641;51.416;5.506;2023-05-25T05:07:16;102749.06;;;15.25;55.60
70248;BME280;57641;51.416;5.506;2023-05-25T05:09:42;102747.53;;;15.32;55.49
70248;BME280;57641;51.416;5.506;2023-05-25T05:12:08;102744.31;;;15.38;55.22
70248;BME280;57641;51.416;5.506;2023-05-25T05:14:33;102750.78;;;15.36;55.68
70248;BME280;57641;51.416;5.506;2023-05-25T05:16:59;102752.97;;;15.51;54.96
70248;BME280;57641;51.416;5.506;2023-05-25T05:19:25;102756.22;;;15.55;54.93
70248;BME280;57641;51.416;5.506;2023-05-25T05:21:50;102763.03;;;15.59;54.71
70248;BME280;57641;51.416;5.506;2023-05-25T05:24:16;102759.94;;;15.63;54.93
70248;BME280;57641;51.416;5.506;2023-05-25T05:26:41;102760.78;;;15.64;54.98
70248;BME280;57641;51.416;5.506;2023-05-25T05:29:07;102759.75;;;15.55;55.05
70248;BME280;57641;51.416;5.506;2023-05-25T05:31:32;102757.81;;;15.77;54.78
70248;BME280;57641;51.416;5.506;2023-05-25T05:33:58;102771.97;;;15.79;54.75
70248;BME280;57641;51.416;5.506;2023-05-25T05:36:24;102767.31;;;15.81;54.84
70248;BME280;57641;51.416;5.506;2023-05-25T05:38:49;102762.50;;;15.75;55.02
70248;BME280;57641;51.416;5.506;2023-05-25T05:41:15;102770.84;;;15.91;54.59
70248;BME280;57641;51.416;5.506;2023-05-25T05:43:41;102772.28;;;15.95;54.48
70248;BME280;57641;51.416;5.506;2023-05-25T05:46:10;102772.53;;;15.92;54.40
70248;BME280;57641;51.416;5.506;2023-05-25T05:48:36;102782.03;;;15.96;54.64
70248;BME280;57641;51.416;5.506;2023-05-25T05:51:04;102788.41;;;15.95;54.97
70248;BME280;57641;51.416;5.506;2023-05-25T05:53:30;102785.59;;;15.96;54.88
70248;BME280;57641;51.416;5.506;2023-05-25T05:55:57;102788.53;;;16.13;53.99
70248;BME280;57641;51.416;5.506;2023-05-25T05:58:24;102796.34;;;16.16;54.05
70248;BME280;57641;51.416;5.506;2023-05-25T06:00:54;102805.94;;;16.18;54.08
70248;BME280;57641;51.416;5.506;2023-05-25T06:03:22;102800.44;;;16.29;53.63
70248;BME280;57641;51.416;5.506;2023-05-25T06:05:47;102802.97;;;16.31;54.08
70248;BME280;57641;51.416;5.506;2023-05-25T06:08:13;102799.72;;;16.37;53.45
70248;BME280;57641;51.416;5.506;2023-05-25T06:10:39;102805.22;;;16.45;53.51
70248;BME280;57641;51.416;5.506;2023-05-25T06:13:05;102812.03;;;16.49;53.64
70248;BME280;57641;51.416;5.506;2023-05-25T06:15:34;102814.13;;;16.55;53.94
70248;BME280;57641;51.416;5.506;2023-05-25T06:18:00;102814.31;;;16.63;53.27
70248;BME280;57641;51.416;5.506;2023-05-25T06:20:25;102808.75;;;16.74;52.26
70248;BME280;57641;51.416;5.506;2023-05-25T06:22:51;102813.44;;;16.72;52.70
70248;BME280;57641;51.416;5.506;2023-05-25T06:25:18;102814.25;;;16.82;52.82
70248;BME280;57641;51.416;5.506;2023-05-25T06:27:44;102814.00;;;16.76;53.08
70248;BME280;57641;51.416;5.506;2023-05-25T06:30:10;102813.56;;;16.80;53.08
70248;BME280;57641;51.416;5.506;2023-05-25T06:32:36;102815.81;;;16.85;52.91
70248;BME280;57641;51.416;5.506;2023-05-25T06:35:01;102817.78;;;16.83;53.00
70248;BME280;57641;51.416;5.506;2023-05-25T06:37:28;102815.47;;;17.07;52.37
70248;BME280;57641;51.416;5.506;2023-05-25T06:39:59;102823.94;;;17.12;52.80
70248;BME280;57641;51.416;5.506;2023-05-25T06:42:26;102821.78;;;17.16;52.96
70248;BME280;57641;51.416;5.506;2023-05-25T06:44:52;102826.03;;;17.18;52.70
70248;BME280;57641;51.416;5.506;2023-05-25T06:47:18;102819.44;;;17.30;52.58
70248;BME280;57641;51.416;5.506;2023-05-25T06:49:43;102825.81;;;17.39;52.71
70248;BME280;57641;51.416;5.506;2023-05-25T06:52:08;102823.06;;;17.49;52.44
70248;BME280;57641;51.416;5.506;2023-05-25T06:54:34;102821.66;;;17.45;52.43
70248;BME280;57641;51.416;5.506;2023-05-25T06:57:00;102823.16;;;17.57;52.26
70248;BME280;57641;51.416;5.506;2023-05-25T06:59:25;102824.78;;;17.50;51.22
70248;BME280;57641;51.416;5.506;2023-05-25T07:01:51;102829.53;;;17.65;51.09
70248;BME280;57641;51.416;5.506;2023-05-25T07:04:16;102832.91;;;17.67;50.52
70248;BME280;57641;51.416;5.506;2023-05-25T07:06:42;102832.38;;;17.64;51.07
70248;BME280;57641;51.416;5.506;2023-05-25T07:09:07;102830.47;;;17.74;50.76
70248;BME280;57641;51.416;5.506;2023-05-25T07:11:33;102835.94;;;17.82;50.37
70248;BME280;57641;51.416;5.506;2023-05-25T07:13:58;102841.31;;;17.82;50.63
70248;BME280;57641;51.416;5.506;2023-05-25T07:16:24;102843.53;;;17.96;50.31
70248;BME280;57641;51.416;5.506;2023-05-25T07:18:50;102837.75;;;17.91;50.05
70248;BME280;57641;51.416;5.506;2023-05-25T07:21:15;102839.56;;;18.08;49.39
70248;BME280;57641;51.416;5.506;2023-05-25T07:23:41;102840.88;;;18.04;49.68
70248;BME280;57641;51.416;5.506;2023-05-25T07:26:07;102847.84;;;18.07;49.71
70248;BME280;57641;51.416;5.506;2023-05-25T07:28:32;102845.06;;;18.17;49.95
70248;BME280;57641;51.416;5.506;2023-05-25T07:30:58;102851.09;;;18.28;49.69
70248;BME280;57641;51.416;5.506;2023-05-25T07:33:23;102851.00;;;18.38;48.91
70248;BME280;57641;51.416;5.506;2023-05-25T07:35:49;102845.81;;;18.44;48.98
70248;BME280;57641;51.416;5.506;2023-05-25T07:38:15;102840.03;;;18.39;48.24
70248;BME280;57641;51.416;5.506;2023-05-25T07:40:41;102846.72;;;18.53;48.66
70248;BME280;57641;51.416;5.506;2023-05-25T07:43:08;102852.28;;;18.51;48.55
70248;BME280;57641;51.416;5.506;2023-05-25T07:45:33;102849.75;;;18.68;48.06
70248;BME280;57641;51.416;5.506;2023-05-25T07:47:58;102846.19;;;18.67;47.81
70248;BME280;57641;51.416;5.506;2023-05-25T07:50:24;102845.88;;;18.70;47.81
70248;BME280;57641;51.416;5.506;2023-05-25T07:52:49;102849.63;;;18.77;47.70
70248;BME280;57641;51.416;5.506;2023-05-25T07:55:16;102844.53;;;18.92;47.68
70248;BME280;57641;51.416;5.506;2023-05-25T07:57:43;102848.25;;;18.99;46.93
70248;BME280;57641;51.416;5.506;2023-05-25T08:00:09;102851.88;;;19.08;47.07
70248;BME280;57641;51.416;5.506;2023-05-25T08:02:35;102859.41;;;18.96;46.78
70248;BME280;57641;51.416;5.506;2023-05-25T08:05:01;102859.03;;;19.25;46.23
70248;BME280;57641;51.416;5.506;2023-05-25T08:07:31;102858.88;;;19.26;45.82
70248;BME280;57641;51.416;5.506;2023-05-25T08:09:57;102862.50;;;18.83;45.62
70248;BME280;57641;51.416;5.506;2023-05-25T08:12:22;102864.84;;;19.04;46.12
70248;BME280;57641;51.416;5.506;2023-05-25T08:14:47;102867.66;;;19.20;46.22
70248;BME280;57641;51.416;5.506;2023-05-25T08:17:13;102866.03;;;19.35;45.88
70248;BME280;57641;51.416;5.506;2023-05-25T08:19:38;102872.66;;;19.07;45.20
70248;BME280;57641;51.416;5.506;2023-05-25T08:22:04;102871.69;;;18.65;46.64
70248;BME280;57641;51.416;5.506;2023-05-25T08:24:29;102871.41;;;19.27;45.60
70248;BME280;57641;51.416;5.506;2023-05-25T08:26:55;102864.81;;;19.56;45.38
70248;BME280;57641;51.416;5.506;2023-05-25T08:29:21;102873.69;;;19.40;45.61
70248;BME280;57641;51.416;5.506;2023-05-25T08:31:46;102870.09;;;19.65;44.61
70248;BME280;57641;51.416;5.506;2023-05-25T08:34:17;102868.00;;;19.93;44.99
70248;BME280;57641;51.416;5.506;2023-05-25T08:36:43;102864.13;;;20.12;44.11
70248;BME280;57641;51.416;5.506;2023-05-25T08:39:09;102875.13;;;20.27;43.91
70248;BME280;57641;51.416;5.506;2023-05-25T08:41:36;102871.75;;;20.24;43.88
70248;BME280;57641;51.416;5.506;2023-05-25T08:44:05;102876.97;;;20.10;43.32
70248;BME280;57641;51.416;5.506;2023-05-25T08:46:33;102874.56;;;19.99;43.69
70248;BME280;57641;51.416;5.506;2023-05-25T08:49:17;102876.63;;;19.97;43.56
70248;BME280;57641;51.416;5.506;2023-05-25T08:51:50;102876.13;;;20.01;44.21
70248;BME280;57641;51.416;5.506;2023-05-25T08:54:22;102880.19;;;19.97;44.42
70248;BME280;57641;51.416;5.506;2023-05-25T08:56:51;102879.66;;;20.10;44.77
70248;BME280;57641;51.416;5.506;2023-05-25T09:02:45;102877.66;;;20.04;43.99
70248;BME280;57641;51.416;5.506;2023-05-25T09:05:02;102878.81;;;19.93;45.70
70248;BME280;57641;51.416;5.506;2023-05-25T09:07:30;102879.66;;;20.02;44.37
70248;BME280;57641;51.416;5.506;2023-05-25T09:09:57;102880.31;;;19.96;44.40
70248;BME280;57641;51.416;5.506;2023-05-25T09:12:23;102879.34;;;20.21;44.24
70248;BME280;57641;51.416;5.506;2023-05-25T09:14:49;102877.38;;;20.31;44.60
70248;BME280;57641;51.416;5.506;2023-05-25T09:17:16;102877.50;;;20.21;44.48
70248;BME280;57641;51.416;5.506;2023-05-25T09:19:43;102872.66;;;20.49;44.14
70248;BME280;57641;51.416;5.506;2023-05-25T09:22:08;102881.78;;;20.64;43.83
70248;BME280;57641;51.416;5.506;2023-05-25T09:24:35;102872.47;;;20.75;43.03
70248;BME280;57641;51.416;5.506;2023-05-25T09:27:02;102878.25;;;20.72;43.27
70248;BME280;57641;51.416;5.506;2023-05-25T09:29:30;102885.00;;;20.68;42.50
70248;BME280;57641;51.416;5.506;2023-05-25T09:31:56;102879.41;;;20.70;42.65
70248;BME280;57641;51.416;5.506;2023-05-25T09:34:22;102880.09;;;20.72;42.44
70248;BME280;57641;51.416;5.506;2023-05-25T09:36:47;102882.97;;;20.70;42.24
70248;BME280;57641;51.416;5.506;2023-05-25T09:39:13;102881.78;;;20.48;42.18
70248;BME280;57641;51.416;5.506;2023-05-25T09:41:42;102883.31;;;20.59;42.52
70248;BME280;57641;51.416;5.506;2023-05-25T09:44:08;102878.91;;;20.58;42.73
70248;BME280;57641;51.416;5.506;2023-05-25T09:46:34;102884.50;;;20.48;42.94
70248;BME280;57641;51.416;5.506;2023-05-25T09:49:07;102891.63;;;20.49;43.17
70248;BME280;57641;51.416;5.506;2023-05-25T09:51:34;102886.38;;;20.56;42.30
70248;BME280;57641;51.416;5.506;2023-05-25T09:54:01;102892.13;;;20.61;42.48
70248;BME280;57641;51.416;5.506;2023-05-25T09:56:30;102893.47;;;20.81;42.37
70248;BME280;57641;51.416;5.506;2023-05-25T09:58:56;102894.16;;;20.67;42.47
70248;BME280;57641;51.416;5.506;2023-05-25T10:01:22;102896.03;;;20.67;42.77
70248;BME280;57641;51.416;5.506;2023-05-25T10:03:48;102893.13;;;20.84;41.93
70248;BME280;57641;51.416;5.506;2023-05-25T10:06:18;102895.69;;;20.78;42.00
70248;BME280;57641;51.416;5.506;2023-05-25T10:08:44;102899.06;;;20.72;41.89
70248;BME280;57641;51.416;5.506;2023-05-25T10:11:12;102897.03;;;20.74;41.21
70248;BME280;57641;51.416;5.506;2023-05-25T10:13:40;102904.84;;;20.77;41.22
70248;BME280;57641;51.416;5.506;2023-05-25T10:16:08;102900.41;;;20.84;41.22
70248;BME280;57641;51.416;5.506;2023-05-25T10:18:42;102896.53;;;20.70;41.16
70248;BME280;57641;51.416;5.506;2023-05-25T10:21:09;102903.31;;;20.82;40.95
70248;BME280;57641;51.416;5.506;2023-05-25T10:23:43;102904.97;;;20.83;41.77
70248;BME280;57641;51.416;5.506;2023-05-25T10:26:11;102908.72;;;20.74;41.32
70248;BME280;57641;51.416;5.506;2023-05-25T10:28:38;102901.09;;;20.53;41.27
70248;BME280;57641;51.416;5.506;2023-05-25T10:31:07;102892.78;;;20.39;41.68
70248;BME280;57641;51.416;5.506;2023-05-25T10:33:33;102897.72;;;20.76;41.95
70248;BME280;57641;51.416;5.506;2023-05-25T10:35:59;102903.97;;;20.92;41.65
70248;BME280;57641;51.416;5.506;2023-05-25T10:38:26;102898.72;;;20.99;41.37
70248;BME280;57641;51.416;5.506;2023-05-25T10:40:58;102905.50;;;20.79;40.93
70248;BME280;57641;51.416;5.506;2023-05-25T10:43:24;102899.56;;;20.83;41.07
70248;BME280;57641;51.416;5.506;2023-05-25T10:45:50;102901.78;;;20.63;40.78
70248;BME280;57641;51.416;5.506;2023-05-25T10:48:16;102912.44;;;20.81;41.04
70248;BME280;57641;51.416;5.506;2023-05-25T10:50:41;102911.44;;;20.74;41.12
70248;BME280;57641;51.416;5.506;2023-05-25T10:53:13;102904.97;;;20.83;40.70
70248;BME280;57641;51.416;5.506;2023-05-25T10:58:20;102907.38;;;20.46;41.91
70248;BME280;57641;51.416;5.506;2023-05-25T11:00:59;102911.25;;;20.67;41.35
70248;BME280;57641;51.416;5.506;2023-05-25T11:06:16;102908.91;;;20.64;42.07
70248;BME280;57641;51.416;5.506;2023-05-25T11:08:56;102909.06;;;20.71;41.61
70248;BME280;57641;51.416;5.506;2023-05-25T11:14:26;102909.22;;;20.70;41.62
70248;BME280;57641;51.416;5.506;2023-05-25T11:22:16;102908.88;;;20.97;40.81
70248;BME280;57641;51.416;5.506;2023-05-25T11:24:51;102903.25;;;21.06;41.08
70248;BME280;57641;51.416;5.506;2023-05-25T11:27:26;102898.69;;;21.07;40.43
70248;BME280;57641;51.416;5.506;2023-05-25T11:29:53;102895.81;;;21.17;40.54
70248;BME280;57641;51.416;5.506;2023-05-25T11:32:20;102885.06;;;21.31;40.53
70248;BME280;57641;51.416;5.506;2023-05-25T11:34:47;102883.53;;;21.45;39.62
70248;BME280;57641;51.416;5.506;2023-05-25T11:37:17;102877.13;;;21.69;39.03
70248;BME280;57641;51.416;5.506;2023-05-25T11:39:49;102873.25;;;22.02;39.25
70248;BME280;57641;51.416;5.506;2023-05-25T11:42:16;102871.50;;;22.32;38.77
70248;BME280;57641;51.416;5.506;2023-05-25T11:44:44;102873.44;;;22.23;36.70
70248;BME280;57641;51.416;5.506;2023-05-25T11:47:10;102864.78;;;22.43;36.34
70248;BME280;57641;51.416;5.506;2023-05-25T11:49:44;102868.13;;;22.30;36.76
70248;BME280;57641;51.416;5.506;2023-05-25T11:52:16;102870.84;;;22.30;37.76
70248;BME280;57641;51.416;5.506;2023-05-25T11:54:42;102862.69;;;22.30;37.54
70248;BME280;57641;51.416;5.506;2023-05-25T11:57:19;102865.88;;;22.33;36.73
70248;BME280;57641;51.416;5.506;2023-05-25T11:59:50;102862.03;;;22.28;37.58
70248;BME280;57641;51.416;5.506;2023-05-25T12:02:17;102859.75;;;22.54;37.14
70248;BME280;57641;51.416;5.506;2023-05-25T12:04:57;102863.28;;;22.63;37.51
70248;BME280;57641;51.416;5.506;2023-05-25T12:07:27;102860.63;;;22.55;38.13
70248;BME280;57641;51.416;5.506;2023-05-25T12:10:07;102859.94;;;22.53;36.62
70248;BME280;57641;51.416;5.506;2023-05-25T12:12:44;102861.59;;;22.62;38.17
70248;BME280;57641;51.416;5.506;2023-05-25T12:15:13;102852.81;;;22.74;37.41
70248;BME280;57641;51.416;5.506;2023-05-25T12:17:41;102850.16;;;22.66;36.57
70248;BME280;57641;51.416;5.506;2023-05-25T12:20:08;102844.75;;;22.81;37.26
70248;BME280;57641;51.416;5.506;2023-05-25T12:22:36;102846.03;;;22.70;37.10
70248;BME280;57641;51.416;5.506;2023-05-25T12:25:07;102838.03;;;22.69;36.84
70248;BME280;57641;51.416;5.506;2023-05-25T12:27:35;102847.50;;;22.58;36.78
70248;BME280;57641;51.416;5.506;2023-05-25T12:30:02;102842.81;;;22.52;36.98
70248;BME280;57641;51.416;5.506;2023-05-25T12:32:27;102842.72;;;22.60;37.59
70248;BME280;57641;51.416;5.506;2023-05-25T12:35:06;102839.31;;;22.58;36.24
70248;BME280;57641;51.416;5.506;2023-05-25T12:37:32;102846.41;;;22.30;36.98
70248;BME280;57641;51.416;5.506;2023-05-25T12:39:58;102845.44;;;21.92;37.53
70248;BME280;57641;51.416;5.506;2023-05-25T12:42:24;102846.88;;;22.33;37.92
70248;BME280;57641;51.416;5.506;2023-05-25T12:44:56;102845.53;;;22.52;37.77
70248;BME280;57641;51.416;5.506;2023-05-25T12:47:23;102838.41;;;22.51;37.25
70248;BME280;57641;51.416;5.506;2023-05-25T12:50:12;102833.44;;;22.55;37.52
70248;BME280;57641;51.416;5.506;2023-05-25T12:57:47;102832.13;;;22.51;36.90
70248;BME280;57641;51.416;5.506;2023-05-25T13:00:21;102836.69;;;22.50;36.77
70248;BME280;57641;51.416;5.506;2023-05-25T13:02:48;102829.22;;;22.52;36.60
70248;BME280;57641;51.416;5.506;2023-05-25T13:05:23;102822.66;;;22.61;36.87
70248;BME280;57641;51.416;5.506;2023-05-25T13:07:50;102830.03;;;22.76;36.68
70248;BME280;57641;51.416;5.506;2023-05-25T13:10:16;102825.53;;;22.83;36.41
70248;BME280;57641;51.416;5.506;2023-05-25T13:12:46;102820.06;;;22.68;36.37
70248;BME280;57641;51.416;5.506;2023-05-25T13:15:13;102826.75;;;22.80;37.14
70248;BME280;57641;51.416;5.506;2023-05-25T13:17:40;102822.38;;;22.94;36.74
70248;BME280;57641;51.416;5.506;2023-05-25T13:20:07;102819.31;;;22.74;36.44
70248;BME280;57641;51.416;5.506;2023-05-25T13:22:32;102807.63;;;23.03;36.90
70248;BME280;57641;51.416;5.506;2023-05-25T13:24:58;102802.81;;;23.34;36.59